Time;durP1;ratioP1;P1;durP2;ratioP2;P2;SDS_P1;SDS_P2;PMS_P1;PMS_P2;Temp;Humidity;BMP_temperature;BMP_pressure;BME280_temperature;BME280_humidity;BME280_pressure;Samples;Min_cycle;Max_cycle;Signal;HPM_P1;HPM_P2
2022/07/09 00:01:27;;;;;;;15.80;9.95;;;;;;;17.68;100.00;102853.13;5108123;28;20091;-69
2022/07/09 00:03:54;;;;;;;18.00;10.02;;;;;;;17.60;100.00;102849.44;5106836;28;20036;-69
2022/07/09 00:06:20;;;;;;;12.75;9.40;;;;;;;17.49;100.00;102850.09;5107736;28;20194;-70
2022/07/09 00:08:45;;;;;;;12.95;9.25;;;;;;;17.42;100.00;102853.50;5093991;28;20076;-70
2022/07/09 00:11:10;;;;;;;13.95;9.45;;;;;;;17.59;100.00;102845.84;5093704;28;20103;-70
2022/07/09 00:13:36;;;;;;;14.32;9.77;;;;;;;17.64;100.00;102848.63;5093665;28;20020;-70
2022/07/09 00:16:02;;;;;;;14.40;9.77;;;;;;;17.62;100.00;102850.34;5093322;28;20040;-69
2022/07/09 00:18:27;;;;;;;14.48;9.65;;;;;;;17.51;100.00;102839.47;5097978;28;20034;-69
2022/07/09 00:20:55;;;;;;;15.00;9.80;;;;;;;17.45;100.00;102837.59;5107627;28;20031;-70
2022/07/09 00:23:21;;;;;;;14.00;9.85;;;;;;;17.42;100.00;102839.31;5093398;28;20031;-70
2022/07/09 00:25:46;;;;;;;16.63;11.65;;;;;;;17.47;100.00;102835.88;5113225;28;20019;-70
2022/07/09 00:28:12;;;;;;;21.67;13.85;;;;;;;17.53;100.00;102840.41;5113987;28;20054;-70
2022/07/09 00:30:37;;;;;;;20.25;15.15;;;;;;;17.60;100.00;102844.09;5113799;28;20153;-70
2022/07/09 00:33:03;;;;;;;22.50;15.18;;;;;;;17.64;100.00;102840.63;5095910;28;20069;-70
2022/07/09 00:35:28;;;;;;;23.30;16.48;;;;;;;17.63;100.00;102841.50;5113774;28;20032;-71
2022/07/09 00:37:54;;;;;;;33.05;16.55;;;;;;;17.57;100.00;102836.06;5114225;28;20348;-70
2022/07/09 00:40:19;;;;;;;25.83;15.85;;;;;;;17.60;100.00;102841.44;5095496;28;20528;-70
2022/07/09 00:42:44;;;;;;;25.10;15.68;;;;;;;17.61;100.00;102836.13;5093596;28;20020;-70
2022/07/09 00:45:10;;;;;;;26.80;16.67;;;;;;;17.62;100.00;102837.03;5093354;28;20023;-70
2022/07/09 00:47:35;;;;;;;30.08;17.67;;;;;;;17.61;100.00;102836.13;5093297;28;20386;-70
2022/07/09 00:50:01;;;;;;;25.85;17.20;;;;;;;17.60;100.00;102838.78;5093128;28;20560;-70
2022/07/09 00:52:27;;;;;;;28.55;17.02;;;;;;;17.56;100.00;102829.81;5093170;28;20081;-70
2022/07/09 00:54:54;;;;;;;26.25;17.20;;;;;;;17.55;100.00;102822.69;5098781;28;20024;-70
2022/07/09 00:57:19;;;;;;;26.48;18.08;;;;;;;17.57;100.00;102820.97;5075193;28;20128;-70
2022/07/09 00:59:46;;;;;;;23.67;17.55;;;;;;;17.61;100.00;102827.28;5093431;28;20471;-70
2022/07/09 01:02:11;;;;;;;31.70;18.00;;;;;;;17.51;100.00;102821.75;5093393;28;20024;-70
2022/07/09 01:04:39;;;;;;;33.35;19.60;;;;;;;17.50;100.00;102819.97;5111400;28;20024;-71
2022/07/09 01:07:05;;;;;;;30.65;18.92;;;;;;;17.49;100.00;102817.28;5102004;28;20043;-70
2022/07/09 01:09:31;;;;;;;27.15;19.33;;;;;;;17.51;100.00;102821.75;5093571;28;20067;-70
2022/07/09 01:11:56;;;;;;;28.25;18.40;;;;;;;17.47;100.00;102811.94;5094001;28;20051;-70
2022/07/09 01:14:22;;;;;;;29.15;18.77;;;;;;;17.44;100.00;102819.81;5093449;28;20040;-70
2022/07/09 01:16:57;;;;;;;25.33;18.13;;;;;;;17.42;100.00;102816.25;5097276;28;20028;-69
2022/07/09 01:19:22;;;;;;;24.27;17.05;;;;;;;17.41;100.00;102819.78;5110134;28;20144;-70
2022/07/09 01:21:47;;;;;;;25.70;16.88;;;;;;;17.41;100.00;102813.56;5103971;28;20016;-69
2022/07/09 01:24:13;;;;;;;25.13;17.58;;;;;;;17.37;100.00;102817.91;5098969;28;20027;-70
2022/07/09 01:26:38;;;;;;;24.95;14.70;;;;;;;17.40;100.00;102814.41;5098819;28;20031;-69
2022/07/09 01:29:03;;;;;;;28.83;17.58;;;;;;;17.40;100.00;102810.00;5096604;28;20066;-70
2022/07/09 01:31:29;;;;;;;25.23;16.52;;;;;;;17.47;100.00;102811.00;5096780;28;20023;-70
2022/07/09 01:33:54;;;;;;;23.80;15.70;;;;;;;17.49;100.00;102806.63;5110056;28;20099;-69
2022/07/09 01:36:19;;;;;;;26.45;16.38;;;;;;;17.53;100.00;102806.69;5096541;28;20048;-70
2022/07/09 01:38:44;;;;;;;19.42;14.32;;;;;;;17.57;100.00;102801.47;5098474;28;20036;-70
2022/07/09 01:41:10;;;;;;;24.40;15.13;;;;;;;17.60;100.00;102796.19;5103869;28;20052;-70
2022/07/09 01:43:36;;;;;;;22.33;13.93;;;;;;;17.52;100.00;102801.34;5097045;28;20367;-70
2022/07/09 01:46:01;;;;;;;17.52;14.27;;;;;;;17.52;100.00;102796.91;5078407;28;20016;-70
2022/07/09 01:48:29;;;;;;;26.23;15.32;;;;;;;17.52;100.00;102794.25;5096421;28;20532;-70
2022/07/09 01:50:55;;;;;;;22.83;12.90;;;;;;;17.51;100.00;102797.81;5109237;28;20026;-69
2022/07/09 01:53:20;;;;;;;22.70;13.98;;;;;;;17.49;100.00;102786.22;5096948;28;20058;-70
2022/07/09 01:55:46;;;;;;;20.58;12.63;;;;;;;17.49;100.00;102786.22;5100771;28;20459;-70
2022/07/09 01:58:11;;;;;;;22.45;12.35;;;;;;;17.51;100.00;102784.50;5116155;28;20055;-69
2022/07/09 02:00:36;;;;;;;18.33;11.75;;;;;;;17.51;100.00;102783.56;5104317;28;20456;-70
2022/07/09 02:03:02;;;;;;;17.17;11.20;;;;;;;17.40;100.00;102782.50;5095957;28;20024;-70
2022/07/09 02:05:27;;;;;;;19.65;12.13;;;;;;;17.34;100.00;102785.94;5096072;28;20017;-70
2022/07/09 02:07:53;;;;;;;16.88;10.68;;;;;;;17.32;100.00;102779.66;5095683;28;20024;-69
2022/07/09 02:10:18;;;;;;;17.98;10.77;;;;;;;17.27;100.00;102781.34;5095913;28;20020;-69
2022/07/09 02:12:43;;;;;;;19.85;11.10;;;;;;;17.23;100.00;102779.47;5077855;28;20116;-69
2022/07/09 02:15:10;;;;;;;18.63;11.27;;;;;;;17.18;100.00;102777.63;5096535;28;20444;-70
2022/07/09 02:17:36;;;;;;;19.70;10.60;;;;;;;17.23;100.00;102783.06;5077509;28;20085;-70
2022/07/09 02:20:02;;;;;;;18.05;11.05;;;;;;;17.18;100.00;102779.41;5113708;28;20020;-70
2022/07/09 02:22:27;;;;;;;20.67;10.70;;;;;;;17.15;100.00;102777.56;5096915;28;20056;-69
2022/07/09 02:24:53;;;;;;;17.98;10.75;;;;;;;17.15;100.00;102774.03;5107934;28;20019;-70
2022/07/09 02:27:18;;;;;;;17.55;10.63;;;;;;;17.18;100.00;102769.66;5114921;28;20031;-70
2022/07/09 02:29:43;;;;;;;15.85;10.30;;;;;;;17.19;100.00;102767.91;5116069;28;20096;-70
2022/07/09 02:32:12;;;;;;;18.60;10.93;;;;;;;17.25;100.00;102773.31;5116275;28;20113;-70
2022/07/09 02:34:38;;;;;;;13.73;10.20;;;;;;;17.28;100.00;102769.84;5115793;28;20110;-70
2022/07/09 02:37:04;;;;;;;14.15;9.13;;;;;;;17.33;100.00;102770.81;5115796;28;20061;-70
2022/07/09 02:39:30;;;;;;;15.50;8.93;;;;;;;17.28;100.00;102770.75;5115706;28;20152;-70
2022/07/09 02:41:55;;;;;;;14.85;9.35;;;;;;;17.22;100.00;102769.72;5115475;28;20049;-70
2022/07/09 02:44:21;;;;;;;15.13;8.27;;;;;;;17.19;100.00;102760.81;5115843;28;20012;-70
2022/07/09 02:46:46;;;;;;;14.50;9.95;;;;;;;17.16;100.00;102766.06;5115871;28;20517;-70
2022/07/09 02:49:11;;;;;;;14.52;9.05;;;;;;;17.17;100.00;102761.63;5115758;28;20412;-69
2022/07/09 02:51:37;;;;;;;17.45;9.43;;;;;;;17.18;100.00;102768.75;5096937;28;20055;-70
2022/07/09 02:54:03;;;;;;;16.08;9.02;;;;;;;17.17;100.00;102761.63;5098159;28;20029;-69
2022/07/09 02:56:28;;;;;;;15.40;9.00;;;;;;;17.22;100.00;102759.09;5096681;28;20026;-69
2022/07/09 02:58:54;;;;;;;12.68;9.05;;;;;;;17.26;100.00;102766.25;5076857;28;20534;-69
2022/07/09 03:01:19;;;;;;;16.33;9.00;;;;;;;17.28;100.00;102754.78;5095005;28;20032;-69
2022/07/09 03:03:44;;;;;;;11.50;7.88;;;;;;;17.28;100.00;102759.19;5095119;28;20024;-69
2022/07/09 03:06:10;;;;;;;10.77;7.57;;;;;;;17.35;100.00;102756.69;5094795;28;20493;-70
2022/07/09 03:08:35;;;;;;;11.02;7.22;;;;;;;17.37;100.00;102759.38;5094861;28;20074;-70
2022/07/09 03:11:00;;;;;;;12.50;8.32;;;;;;;17.38;100.00;102747.88;5094659;28;20531;-70
2022/07/09 03:13:26;;;;;;;12.48;7.18;;;;;;;17.45;100.00;102740.91;5095012;28;20379;-71
2022/07/09 03:15:51;;;;;;;11.65;6.78;;;;;;;17.47;100.00;102745.38;5112780;28;20056;-69
2022/07/09 03:18:17;;;;;;;13.07;7.75;;;;;;;17.47;100.00;102740.06;5107044;28;20387;-69
2022/07/09 03:20:42;;;;;;;10.15;6.85;;;;;;;17.52;100.00;102740.13;5110728;28;20020;-69
2022/07/09 03:23:07;;;;;;;12.80;6.05;;;;;;;17.55;100.00;102736.63;5094672;28;20058;-69
2022/07/09 03:25:33;;;;;;;10.50;5.70;;;;;;;17.54;100.00;102733.09;5112411;28;20382;-69
2022/07/09 03:27:58;;;;;;;6.70;4.88;;;;;;;17.60;100.00;102730.50;5114930;28;20106;-69
2022/07/09 03:30:24;;;;;;;7.03;5.22;;;;;;;17.67;100.00;102734.19;5114799;28;20026;-69
2022/07/09 03:32:50;;;;;;;6.75;4.97;;;;;;;17.67;100.00;102742.16;5114706;28;20164;-69
2022/07/09 03:35:16;;;;;;;7.63;5.20;;;;;;;17.66;100.00;102732.38;5096341;28;20031;-69
2022/07/09 03:37:41;;;;;;;9.93;5.80;;;;;;;17.73;100.00;102736.03;5114494;28;20028;-70
2022/07/09 03:40:07;;;;;;;8.20;5.47;;;;;;;17.76;100.00;102734.34;5114653;28;20020;-70
2022/07/09 03:42:32;;;;;;;10.65;5.00;;;;;;;17.77;100.00;102736.16;5114811;28;20043;-70
2022/07/09 03:44:57;;;;;;;6.10;4.82;;;;;;;17.77;100.00;102730.81;5114586;28;20016;-70
2022/07/09 03:47:23;;;;;;;8.32;5.20;;;;;;;17.78;100.00;102727.25;5114489;28;20425;-70
2022/07/09 03:49:49;;;;;;;10.35;5.30;;;;;;;17.79;100.00;102731.72;5096373;28;20466;-70
2022/07/09 03:52:14;;;;;;;13.95;4.50;;;;;;;17.81;100.00;102735.31;5114336;28;20056;-69
2022/07/09 03:54:40;;;;;;;11.80;4.80;;;;;;;17.85;100.00;102734.50;5114428;28;20084;-70
2022/07/09 03:57:05;;;;;;;9.38;5.35;;;;;;;17.82;100.00;102737.13;5104641;28;20030;-70
2022/07/09 03:59:30;;;;;;;12.10;5.50;;;;;;;17.80;100.00;102737.97;5094240;28;20024;-69
2022/07/09 04:01:56;;;;;;;13.95;5.70;;;;;;;17.81;100.00;102730.00;5094433;28;20023;-69
2022/07/09 04:04:21;;;;;;;12.65;5.30;;;;;;;17.86;100.00;102738.97;5094250;28;20417;-69
2022/07/09 04:06:46;;;;;;;8.05;5.25;;;;;;;17.92;100.00;102737.28;5094025;28;20036;-70
2022/07/09 04:09:12;;;;;;;10.52;6.30;;;;;;;17.93;100.00;102744.41;5094149;28;20115;-70
2022/07/09 04:11:37;;;;;;;9.88;5.90;;;;;;;17.96;100.00;102740.03;5094323;28;20020;-70
2022/07/09 04:14:03;;;;;;;10.43;6.03;;;;;;;17.97;100.00;102736.53;5094578;28;20107;-70
2022/07/09 04:16:29;;;;;;;8.63;5.82;;;;;;;18.01;100.00;102742.78;5094947;28;20471;-69
2022/07/09 04:18:54;;;;;;;11.05;6.43;;;;;;;18.01;100.00;102737.44;5102599;28;20027;-70
2022/07/09 04:21:23;;;;;;;15.02;8.32;;;;;;;17.98;100.00;102734.75;5104722;28;20117;-70
2022/07/09 04:23:49;;;;;;;11.98;8.35;;;;;;;17.96;100.00;102734.72;5096501;28;20429;-69
2022/07/09 04:26:16;;;;;;;16.50;8.57;;;;;;;17.96;100.00;102739.13;5114088;28;20385;-70
2022/07/09 04:28:41;;;;;;;11.65;7.50;;;;;;;17.96;100.00;102744.44;5095622;28;20474;-70
2022/07/09 04:31:07;;;;;;;11.68;7.38;;;;;;;17.92;100.00;102747.94;5113827;28;20027;-70
2022/07/09 04:33:32;;;;;;;8.88;7.40;;;;;;;17.89;100.00;102738.09;5114064;28;20049;-69
2022/07/09 04:35:57;;;;;;;11.85;7.38;;;;;;;17.87;100.00;102739.84;5113855;28;20430;-69
2022/07/09 04:38:23;;;;;;;25.05;8.15;;;;;;;17.84;100.00;102739.81;5110770;28;20043;-71
2022/07/09 04:40:48;;;;;;;12.55;6.97;;;;;;;17.83;100.00;102733.56;5093273;28;20035;-68
2022/07/09 04:43:14;;;;;;;14.18;7.47;;;;;;;17.77;100.00;102736.16;5093439;28;20034;-69
2022/07/09 04:45:39;;;;;;;8.95;6.57;;;;;;;17.75;100.00;102735.22;5075223;28;20038;-69
2022/07/09 04:48:04;;;;;;;11.60;7.40;;;;;;;17.75;100.00;102723.69;5093336;28;20028;-69
2022/07/09 04:50:30;;;;;;;8.32;7.00;;;;;;;17.73;100.00;102720.06;5094825;28;20498;-69
2022/07/09 04:52:55;;;;;;;8.88;7.07;;;;;;;17.71;100.00;102717.38;5097499;28;20131;-69
2022/07/09 04:55:21;;;;;;;12.82;7.50;;;;;;;17.72;100.00;102715.66;5083808;28;20031;-70
2022/07/09 04:57:47;;;;;;;10.27;6.95;;;;;;;17.75;100.00;102723.69;5097171;28;20024;-69
2022/07/09 05:00:15;;;;;;;9.77;7.63;;;;;;;17.73;100.00;102718.31;5097682;28;20031;-70
2022/07/09 05:02:41;;;;;;;10.65;8.18;;;;;;;17.78;100.00;102713.94;5079593;28;20387;-70
2022/07/09 05:05:07;;;;;;;13.65;8.93;;;;;;;17.84;100.00;102707.84;5097366;28;20016;-69
2022/07/09 05:07:33;;;;;;;13.00;8.93;;;;;;;17.86;100.00;102711.41;5097379;28;20047;-70
2022/07/09 05:10:01;;;;;;;16.45;9.35;;;;;;;17.91;100.00;102709.72;5097499;28;20364;-69
2022/07/09 05:12:26;;;;;;;15.48;9.23;;;;;;;17.95;100.00;102711.59;5097079;28;20464;-69
2022/07/09 05:14:51;;;;;;;12.75;8.25;;;;;;;17.97;100.00;102708.97;5097097;28;20024;-69
2022/07/09 05:17:17;;;;;;;12.85;9.55;;;;;;;18.01;100.00;102719.72;5096974;28;20468;-69
2022/07/09 05:19:42;;;;;;;17.00;10.63;;;;;;;18.02;100.00;102713.50;5112235;28;20015;-70
2022/07/09 05:22:07;;;;;;;14.43;10.07;;;;;;;18.07;100.00;102710.00;5082775;28;20072;-70
2022/07/09 05:24:33;;;;;;;16.73;10.63;;;;;;;18.09;100.00;102698.50;5106384;28;20587;-70
2022/07/09 05:26:58;;;;;;;18.45;11.35;;;;;;;18.11;100.00;102698.50;5117518;28;20030;-70
2022/07/09 05:29:24;;;;;;;16.92;13.25;;;;;;;18.08;100.00;102702.06;5117133;28;20106;-70
2022/07/09 05:31:49;;;;;;;18.00;13.40;;;;;;;18.10;100.00;102708.28;5117006;28;20099;-71
2022/07/09 05:34:16;;;;;;;18.38;13.65;;;;;;;18.13;100.00;102700.31;5116951;28;20023;-70
2022/07/09 05:36:41;;;;;;;20.30;13.57;;;;;;;18.14;100.00;102701.25;5096451;28;20031;-69
2022/07/09 05:39:07;;;;;;;18.70;13.80;;;;;;;18.18;100.00;102708.41;5096537;28;20525;-71
2022/07/09 05:41:33;;;;;;;25.30;14.48;;;;;;;18.22;100.00;102706.66;5096401;28;20031;-69
2022/07/09 05:43:58;;;;;;;19.60;13.25;;;;;;;18.25;100.00;102712.06;5096599;28;20032;-70
2022/07/09 05:46:24;;;;;;;20.55;15.30;;;;;;;18.19;100.00;102715.50;5096516;28;20024;-70
2022/07/09 05:48:49;;;;;;;22.45;14.80;;;;;;;18.22;100.00;102725.31;5096246;28;20020;-70
2022/07/09 05:51:15;;;;;;;23.05;14.82;;;;;;;18.16;100.00;102721.72;5096141;28;20560;-70
2022/07/09 05:53:40;;;;;;;18.98;13.10;;;;;;;18.24;100.00;102718.25;5096466;28;20039;-70
2022/07/09 05:56:06;;;;;;;22.80;13.98;;;;;;;18.28;100.00;102712.09;5101061;28;20024;-70
2022/07/09 05:58:31;;;;;;;19.52;14.27;;;;;;;18.36;100.00;102713.09;5096297;28;20113;-70
2022/07/09 06:00:57;;;;;;;19.42;13.32;;;;;;;18.43;100.00;102708.75;5077793;28;20035;-70
2022/07/09 06:03:22;;;;;;;17.73;11.85;;;;;;;18.49;100.00;102715.06;5096102;28;20046;-70
2022/07/09 06:05:47;;;;;;;18.80;12.27;;;;;;;18.56;100.00;102717.78;5109711;28;20397;-70
2022/07/09 06:08:13;;;;;;;20.48;12.00;;;;;;;18.62;100.00;102725.91;5095888;28;20024;-71
2022/07/09 06:10:38;;;;;;;15.88;10.55;;;;;;;18.67;100.00;102726.84;5110713;28;20391;-71
2022/07/09 06:13:04;;;;;;;13.43;9.90;;;;;;;18.68;100.00;102720.66;5108987;28;20390;-68
2022/07/09 06:15:30;;;;;;;15.20;7.63;;;;;;;18.60;100.00;102723.22;5095814;28;20454;-70
2022/07/09 06:17:55;;;;;;;9.13;7.63;;;;;;;18.68;100.00;102720.66;5095874;28;20032;-70
2022/07/09 06:20:20;;;;;;;14.80;7.72;;;;;;;18.75;100.00;102716.28;5115058;28;20023;-71
2022/07/09 06:22:46;;;;;;;15.15;7.22;;;;;;;18.83;100.00;102720.84;5095748;28;20027;-69
2022/07/09 06:25:12;;;;;;;10.85;5.65;;;;;;;18.93;100.00;102726.31;5110626;28;20027;-68
2022/07/09 06:27:37;;;;;;;8.65;4.13;;;;;;;18.97;100.00;102725.47;5115987;28;20024;-70
2022/07/09 06:30:03;;;;;;;4.13;3.53;;;;;;;19.02;100.00;102731.78;5115820;28;20058;-70
2022/07/09 06:32:28;;;;;;;4.38;3.10;;;;;;;19.06;100.00;102720.25;5116166;28;20055;-69
2022/07/09 06:34:54;;;;;;;9.63;2.55;;;;;;;19.04;100.00;102725.56;5115709;28;20050;-70
2022/07/09 06:37:20;;;;;;;3.55;2.25;;;;;;;19.08;100.00;102731.81;5115927;28;20119;-69
2022/07/09 06:39:45;;;;;;;4.97;2.35;;;;;;;19.08;100.00;102733.59;5101102;28;20034;-70
2022/07/09 06:42:12;;;;;;;4.60;2.10;;;;;;;19.11;100.00;102731.84;5095359;28;20027;-71
2022/07/09 06:44:38;;;;;;;8.48;2.15;;;;;;;19.13;100.00;102731.91;5095136;28;20073;-70
2022/07/09 06:47:04;;;;;;;7.85;2.20;;;;;;;19.10;100.00;102743.44;5077034;28;20020;-69
2022/07/09 06:49:30;;;;;;;5.07;1.88;;;;;;;19.13;100.00;102746.13;5094946;28;20039;-70
2022/07/09 06:51:56;;;;;;;1.90;1.70;;;;;;;19.17;100.00;102747.94;5094887;28;20488;-70
2022/07/09 06:54:21;;;;;;;6.90;1.98;;;;;;;19.16;100.00;102746.16;5100474;28;20032;-71
2022/07/09 06:56:47;;;;;;;2.10;1.38;;;;;;;19.33;100.00;102742.75;5115444;28;20471;-70
2022/07/09 06:59:12;;;;;;;3.08;1.38;;;;;;;19.38;100.00;102747.28;5115311;28;20024;-70
2022/07/09 07:01:38;;;;;;;3.03;1.60;;;;;;;19.47;100.00;102741.13;5115232;28;20020;-69
2022/07/09 07:04:04;;;;;;;1.90;1.08;;;;;;;19.51;100.00;102742.97;5115159;28;20023;-71
2022/07/09 07:06:29;;;;;;;2.92;1.42;;;;;;;19.52;100.00;102744.75;5115386;28;20114;-70
2022/07/09 07:08:54;;;;;;;5.40;1.33;;;;;;;19.59;100.00;102755.47;5115105;28;20020;-71
2022/07/09 07:11:20;;;;;;;7.75;1.60;;;;;;;19.55;100.00;102754.56;5115173;28;20491;-70
2022/07/09 07:13:45;;;;;;;2.58;1.00;;;;;;;19.65;100.00;102760.91;5114477;28;20432;-70
2022/07/09 07:16:10;;;;;;;5.00;1.30;;;;;;;19.69;100.00;102755.59;5114944;28;20118;-70
2022/07/09 07:18:36;;;;;;;3.83;1.30;;;;;;;19.73;100.00;102769.00;5114812;28;20062;-69
2022/07/09 07:21:01;;;;;;;2.38;1.13;;;;;;;19.80;100.00;102765.47;5107859;28;20028;-69
2022/07/09 07:23:26;;;;;;;5.47;1.23;;;;;;;19.87;100.00;102762.00;5094542;28;20034;-71
2022/07/09 07:25:52;;;;;;;2.72;1.00;;;;;;;19.88;100.00;102759.34;5114861;28;20012;-70
2022/07/09 07:28:17;;;;;;;4.05;1.10;;;;;;;19.88;100.00;102764.69;5096674;28;20411;-70
2022/07/09 07:30:42;;;;;;;3.03;1.40;;;;;;;19.82;100.00;102770.00;5114765;28;20110;-69
2022/07/09 07:33:08;;;;;;;4.68;1.10;;;;;;;19.76;100.00;102769.88;5114749;28;20030;-69
2022/07/09 07:35:33;;;;;;;3.78;1.27;;;;;;;19.74;100.00;102773.41;5114403;28;20115;-71
2022/07/09 07:38:01;;;;;;;9.57;1.17;;;;;;;19.59;100.00;102775.09;5101448;28;20028;-70
2022/07/09 07:40:26;;;;;;;4.50;1.20;;;;;;;19.51;100.00;102769.66;5079560;28;20047;-70
2022/07/09 07:42:52;;;;;;;4.13;1.50;;;;;;;19.45;100.00;102769.63;5107718;28;20053;-71
2022/07/09 07:45:17;;;;;;;3.35;1.35;;;;;;;19.43;100.00;102774.03;5114426;28;20022;-70
2022/07/09 07:47:42;;;;;;;5.30;1.58;;;;;;;19.45;100.00;102772.28;5114424;28;20059;-71
2022/07/09 07:50:08;;;;;;;6.22;2.05;;;;;;;19.53;100.00;102767.91;5096088;28;20020;-70
2022/07/09 07:52:33;;;;;;;8.98;1.50;;;;;;;19.50;100.00;102775.88;5114164;28;20048;-70
2022/07/09 07:54:58;;;;;;;5.45;1.38;;;;;;;19.46;100.00;102774.06;5110087;28;20478;-71
2022/07/09 07:57:24;;;;;;;8.25;1.60;;;;;;;19.43;100.00;102766.03;5114281;28;20059;-69
2022/07/09 07:59:49;;;;;;;5.75;1.52;;;;;;;19.52;100.00;102781.22;5114280;28;20016;-71
2022/07/09 08:02:15;;;;;;;8.73;2.03;;;;;;;19.55;100.00;102783.94;5114175;28;20024;-69
2022/07/09 08:04:40;;;;;;;4.65;1.05;;;;;;;19.55;100.00;102774.16;5113908;28;20024;-70
2022/07/09 08:07:06;;;;;;;9.50;1.50;;;;;;;19.54;100.00;102764.34;5114135;28;20094;-70
2022/07/09 08:09:32;;;;;;;5.72;1.10;;;;;;;19.58;100.00;102769.72;5113987;28;20028;-69
2022/07/09 08:11:58;;;;;;;6.13;1.33;;;;;;;19.59;100.00;102766.16;5095913;28;20019;-71
2022/07/09 08:14:23;;;;;;;6.35;1.40;;;;;;;19.65;100.00;102764.44;5107408;28;20020;-70
2022/07/09 08:16:48;;;;;;;7.20;1.40;;;;;;;19.77;100.00;102768.13;5093778;28;20477;-70
2022/07/09 08:19:15;;;;;;;7.60;1.20;;;;;;;19.84;100.00;102767.31;5103878;28;20395;-70
2022/07/09 08:21:41;;;;;;;9.13;1.55;;;;;;;19.82;100.00;102772.66;5114068;28;20027;-70
2022/07/09 08:24:06;;;;;;;8.38;2.13;;;;;;;19.81;100.00;102773.53;5100087;28;20030;-69
2022/07/09 08:26:32;;;;;;;5.93;1.10;;;;;;;19.91;100.00;102768.28;5113390;28;20023;-71
2022/07/09 08:28:57;;;;;;;4.50;1.00;;;;;;;20.08;100.00;102766.66;5113762;28;20044;-71
2022/07/09 08:31:23;;;;;;;4.25;1.10;;;;;;;20.12;100.00;102773.78;5095689;28;20445;-71
2022/07/09 08:33:49;;;;;;;6.18;1.45;;;;;;;20.30;100.00;102777.50;5113534;28;20111;-69
2022/07/09 08:36:15;;;;;;;4.43;1.40;;;;;;;20.49;100.00;102782.06;5113652;28;20028;-70
2022/07/09 08:38:40;;;;;;;6.88;1.30;;;;;;;20.65;100.00;102774.16;5113787;28;20454;-70
2022/07/09 08:41:06;;;;;;;5.13;1.00;;;;;;;20.70;100.00;102767.06;5113914;28;20019;-70
2022/07/09 08:43:36;;;;;;;9.57;1.38;;;;;;;20.84;100.00;102768.03;5113661;28;20024;-71
2022/07/09 08:46:02;;;;;;;3.03;1.33;;;;;;;20.74;100.00;102763.53;5113704;28;20015;-71
2022/07/09 08:48:27;;;;;;;4.32;1.20;;;;;;;20.79;100.00;102760.88;5113449;28;20158;-70
2022/07/09 08:50:53;;;;;;;5.68;1.13;;;;;;;20.78;100.00;102762.66;5113521;28;20379;-71
2022/07/09 08:53:19;;;;;;;2.60;0.85;;;;;;;20.75;100.00;102764.41;5113480;28;20020;-71
2022/07/09 08:55:45;;;;;;;6.53;1.20;;;;;;;20.69;100.00;102767.97;5108718;28;20460;-69
2022/07/09 08:58:13;;;;;;;4.82;0.82;;;;;;;20.66;100.00;102759.88;5113374;28;20032;-70
2022/07/09 09:00:39;;;;;;;4.72;1.00;;;;;;;20.64;100.00;102761.66;5113631;28;20028;-70
2022/07/09 09:03:05;;;;;;;5.78;1.30;;;;;;;20.65;100.00;102768.81;5113397;28;20028;-70
2022/07/09 09:05:31;;;;;;;4.90;1.00;;;;;;;20.61;100.00;102775.03;5113422;28;20034;-71
2022/07/09 09:07:56;;;;;;;3.30;0.80;;;;;;;20.57;100.00;102765.19;5113269;28;20386;-71
2022/07/09 09:10:23;;;;;;;6.10;1.00;;;;;;;20.57;100.00;102760.72;5113431;28;20023;-71
2022/07/09 09:12:48;;;;;;;2.47;0.88;;;;;;;20.48;100.00;102756.22;5113296;28;20031;-71
2022/07/09 09:15:17;;;;;;;6.38;1.05;;;;;;;20.51;100.00;102756.25;5094973;28;20016;-71
2022/07/09 09:17:44;;;;;;;3.58;1.05;;;;;;;20.67;100.00;102757.22;5093358;28;20089;-70
2022/07/09 09:20:16;;;;;;;5.57;1.05;;;;;;;20.74;100.00;102751.91;5093883;28;20068;-68
2022/07/09 09:22:47;;;;;;;3.00;0.80;;;;;;;20.97;100.00;102760.03;5113091;28;20034;-70
2022/07/09 09:25:19;;;;;;;1.83;0.85;;;;;;;21.10;100.00;102767.22;5092955;28;20112;-71
2022/07/09 09:27:52;;;;;;;1.92;0.60;;;;;;;21.09;100.00;102757.41;5092950;28;20031;-70
2022/07/09 09:30:17;;;;;;;2.55;0.85;;;;;;;21.10;100.00;102772.59;5092998;28;20031;-71
2022/07/09 09:32:42;;;;;;;2.80;0.60;;;;;;;21.28;100.00;102777.09;5092834;28;20027;-70
2022/07/09 09:35:08;;;;;;;1.70;0.70;;;;;;;21.50;100.00;102786.09;5092752;28;20482;-70
2022/07/09 09:37:33;;;;;;;2.05;0.63;;;;;;;21.60;100.00;102784.34;5095776;28;20024;-70
2022/07/09 09:40:08;;;;;;;0.30;0.30;;;;;;;21.65;98.09;102776.31;5078268;28;20157;-70
2022/07/09 09:42:38;;;;;;;1.45;0.60;;;;;;;21.58;94.04;102769.16;5078174;28;20062;-70
2022/07/09 09:45:04;;;;;;;1.27;0.60;;;;;;;21.56;96.59;102788.78;5096522;28;20016;-70
2022/07/09 09:47:30;;;;;;;2.00;0.70;;;;;;;21.87;98.09;102787.97;5096382;28;20024;-71
2022/07/09 09:49:58;;;;;;;1.00;0.70;;;;;;;21.89;97.79;102780.78;5078231;28;20028;-69
2022/07/09 09:52:25;;;;;;;2.67;0.50;;;;;;;21.81;92.05;102778.13;5096211;28;20052;-73
2022/07/09 09:54:52;;;;;;;1.95;0.50;;;;;;;21.99;92.18;102781.69;5100558;28;20028;-70
2022/07/09 09:57:17;;;;;;;1.38;0.73;;;;;;;22.07;92.65;102785.28;5096281;28;20044;-70
2022/07/09 09:59:47;;;;;;;2.45;0.50;;;;;;;21.88;93.15;102787.94;5114931;28;20019;-71
2022/07/09 10:02:13;;;;;;;1.02;0.50;;;;;;;21.67;92.02;102783.44;5103888;28;20032;-70
2022/07/09 10:04:42;;;;;;;1.58;0.60;;;;;;;21.78;92.60;102777.22;5096040;28;20464;-70
2022/07/09 10:07:10;;;;;;;1.40;0.60;;;;;;;21.90;91.97;102785.28;5095848;28;20020;-71
2022/07/09 10:09:35;;;;;;;0.70;0.55;;;;;;;22.08;88.73;102783.47;5095797;28;20024;-70
2022/07/09 10:12:01;;;;;;;1.65;0.70;;;;;;;21.93;89.76;102790.63;5095986;28;20127;-71
2022/07/09 10:14:26;;;;;;;1.13;0.63;;;;;;;21.71;94.82;102787.94;5095761;28;20132;-71
2022/07/09 10:16:52;;;;;;;0.70;0.40;;;;;;;21.86;89.21;102796.88;5096019;28;20459;-71
2022/07/09 10:19:25;;;;;;;0.30;0.30;;;;;;;21.87;89.31;102804.91;5088978;28;20348;-71
2022/07/09 10:21:55;;;;;;;1.10;0.60;;;;;;;21.86;92.72;102804.91;5102198;28;20023;-71
2022/07/09 10:24:28;;;;;;;1.25;0.55;;;;;;;21.76;91.46;102806.72;5084922;28;20058;-70
2022/07/09 10:27:11;;;;;;;1.38;0.50;;;;;;;21.79;95.78;102804.03;5116026;28;20486;-71
2022/07/09 10:29:53;;;;;;;2.00;0.82;;;;;;;21.74;96.45;102811.16;5115880;28;20051;-70
2022/07/09 10:32:28;;;;;;;2.40;1.02;;;;;;;21.73;97.50;102806.69;5115867;28;20024;-71
2022/07/09 10:35:01;;;;;;;1.77;0.75;;;;;;;21.82;100.00;102801.34;5115646;28;20478;-70
2022/07/09 10:37:35;;;;;;;2.70;0.73;;;;;;;21.39;100.00;102807.50;5115828;28;20089;-70
2022/07/09 10:40:09;;;;;;;2.92;1.33;;;;;;;21.09;100.00;102810.94;5097470;28;20054;-70
2022/07/09 10:42:34;;;;;;;6.55;1.08;;;;;;;20.89;100.00;102806.41;5115764;28;20034;-71
2022/07/09 10:44:59;;;;;;;1.75;0.73;;;;;;;21.01;100.00;102793.97;5115689;28;20098;-70
2022/07/09 10:47:39;;;;;;;3.88;1.35;;;;;;;21.29;100.00;102794.94;5115038;28;20451;-71
2022/07/09 10:50:05;;;;;;;4.32;0.90;;;;;;;21.69;100.00;102799.53;5115355;28;20020;-71
2022/07/09 10:52:31;;;;;;;4.88;0.90;;;;;;;22.00;97.53;102795.13;5115463;28;20453;-71
2022/07/09 10:54:56;;;;;;;2.58;1.25;;;;;;;21.98;98.48;102799.56;5110312;28;20023;-71
2022/07/09 10:57:21;;;;;;;2.75;1.00;;;;;;;22.38;99.29;102804.94;5115497;28;20027;-71
2022/07/09 10:59:47;;;;;;;1.88;0.70;;;;;;;22.42;95.02;102807.63;5115225;28;20055;-71
2022/07/09 11:02:22;;;;;;;3.53;1.05;;;;;;;22.33;96.11;102813.88;5115357;28;20024;-71
2022/07/09 11:04:52;;;;;;;4.70;1.05;;;;;;;22.23;97.71;102813.88;5095368;28;20031;-71
2022/07/09 11:07:22;;;;;;;2.65;0.80;;;;;;;22.39;98.25;102813.88;5094975;28;20035;-71